createdAt,value
2019-03-05T00:00:35.535Z,99508.14
2019-03-05T00:03:02.270Z,99498.80
2019-03-05T00:05:29.014Z,99501.18
2019-03-05T00:07:55.733Z,99505.87
2019-03-05T00:10:22.471Z,99507.50
2019-03-05T00:12:49.205Z,99505.38
2019-03-05T00:15:16.046Z,99513.01
2019-03-05T00:17:42.773Z,99518.91
2019-03-05T00:20:10.011Z,99517.91
2019-03-05T00:22:36.729Z,99522.98
2019-03-05T00:25:07.092Z,99517.69
2019-03-05T00:27:48.538Z,99524.30
2019-03-05T00:30:22.029Z,99519.95
2019-03-05T00:32:53.582Z,99525.16
2019-03-05T00:35:47.701Z,99529.23
2019-03-05T00:38:22.902Z,99536.66
2019-03-05T00:41:05.768Z,99528.98
2019-03-05T00:43:46.261Z,99544.59
2019-03-05T00:46:29.346Z,99546.45
2019-03-05T00:49:19.801Z,99558.05
2019-03-05T00:52:14.417Z,99550.31
2019-03-05T00:55:13.793Z,99550.94
2019-03-05T00:58:04.277Z,99560.45
2019-03-05T01:01:15.241Z,99561.90
2019-03-05T01:03:53.560Z,99563.39
2019-03-05T01:06:21.253Z,99571.67
2019-03-05T01:08:48.005Z,99575.55
2019-03-05T01:11:14.742Z,99566.98
2019-03-05T01:13:41.778Z,99571.95
2019-03-05T01:16:08.512Z,99576.23
2019-03-05T01:18:35.222Z,99576.50
2019-03-05T01:21:01.965Z,99573.72
2019-03-05T01:23:28.691Z,99569.43
2019-03-05T01:25:55.419Z,99566.23
2019-03-05T01:28:23.035Z,99575.89
2019-03-05T01:30:55.513Z,99570.53
2019-03-05T01:33:22.241Z,99572.97
2019-03-05T01:35:54.913Z,99565.08
2019-03-05T01:38:21.630Z,99561.73
2019-03-05T01:40:52.486Z,99559.57
2019-03-05T01:43:19.229Z,99556.03
2019-03-05T01:45:45.954Z,99556.77
2019-03-05T01:48:12.694Z,99559.72
2019-03-05T01:50:39.426Z,99560.39
2019-03-05T01:53:06.145Z,99548.56
2019-03-05T01:55:32.895Z,99554.32
2019-03-05T01:57:59.623Z,99559.35
2019-03-05T02:00:26.346Z,99548.34
2019-03-05T02:02:53.066Z,99554.80
2019-03-05T02:05:19.824Z,99550.02
2019-03-05T02:07:46.558Z,99553.76
2019-03-05T02:10:15.626Z,99547.10
2019-03-05T02:12:42.347Z,99546.56
2019-03-05T02:15:09.062Z,99545.27
2019-03-05T02:17:35.794Z,99549.20
2019-03-05T02:20:02.809Z,99547.30
2019-03-05T02:23:06.442Z,99548.25
2019-03-05T02:25:43.273Z,99542.97
2019-03-05T02:28:21.582Z,99544.18
2019-03-05T02:31:14.481Z,99542.94
2019-03-05T02:34:08.563Z,99544.18
2019-03-05T02:36:44.892Z,99536.42
2019-03-05T02:39:37.518Z,99536.03
2019-03-05T02:42:41.250Z,99547.92
2019-03-05T02:45:22.714Z,99543.75
2019-03-05T02:48:22.995Z,99532.69
2019-03-05T02:51:16.819Z,99542.97
2019-03-05T02:54:02.514Z,99529.63
2019-03-05T02:56:39.353Z,99530.28
2019-03-05T02:59:05.306Z,99532.09
2019-03-05T03:01:38.643Z,99541.61
2019-03-05T03:04:09.230Z,99542.51
2019-03-05T03:06:36.670Z,99539.86
2019-03-05T03:09:40.307Z,99543.77
2019-03-05T03:12:07.025Z,99546.97
2019-03-05T03:14:33.749Z,99549.34
2019-03-05T03:17:00.474Z,99552.55
2019-03-05T03:19:27.219Z,99559.95
2019-03-05T03:21:53.940Z,99561.30
2019-03-05T03:24:20.662Z,99556.89
2019-03-05T03:26:47.543Z,99550.08
2019-03-05T03:29:14.267Z,99552.86
2019-03-05T03:31:40.993Z,99552.18
2019-03-05T03:34:07.722Z,99551.57
2019-03-05T03:36:34.469Z,99562.70
2019-03-05T03:39:01.192Z,99558.02
2019-03-05T03:41:27.922Z,99558.50
2019-03-05T03:43:54.635Z,99559.66
2019-03-05T03:46:21.386Z,99554.48
2019-03-05T03:48:48.099Z,99559.17
2019-03-05T03:51:14.826Z,99561.89
2019-03-05T03:53:41.727Z,99568.95
2019-03-05T03:56:08.463Z,99563.80
2019-03-05T03:58:35.185Z,99564.81
2019-03-05T04:01:01.909Z,99566.74
2019-03-05T04:03:28.640Z,99567.01
2019-03-05T04:05:55.385Z,99572.49
2019-03-05T04:08:22.087Z,99561.67
2019-03-05T04:10:48.823Z,99574.33
2019-03-05T04:13:15.539Z,99572.14
2019-03-05T04:15:42.281Z,99571.67
2019-03-05T04:18:09.027Z,99572.02
2019-03-05T04:20:41.381Z,99572.34
2019-03-05T04:23:08.094Z,99561.34
2019-03-05T04:25:35.423Z,99568.28
2019-03-05T04:28:02.143Z,99565.35
2019-03-05T04:30:29.081Z,99570.72
2019-03-05T04:32:55.794Z,99568.87
2019-03-05T04:35:22.541Z,99570.73
2019-03-05T04:37:49.261Z,99573.58
2019-03-05T04:40:15.990Z,99571.80
2019-03-05T04:42:42.715Z,99562.02
2019-03-05T04:45:22.921Z,99563.17
2019-03-05T04:47:49.634Z,99568.27
2019-03-05T04:50:35.990Z,99574.19
2019-03-05T04:53:02.705Z,99570.17
2019-03-05T04:55:29.445Z,99577.30
2019-03-05T04:57:56.158Z,99571.33
2019-03-05T05:00:22.880Z,99576.83
2019-03-05T05:02:49.610Z,99584.38
2019-03-05T05:05:16.321Z,99587.58
2019-03-05T05:07:43.174Z,99577.13
2019-03-05T05:10:09.902Z,99577.03
2019-03-05T05:12:36.638Z,99570.38
2019-03-05T05:15:04.374Z,99580.66
2019-03-05T05:17:31.110Z,99584.53
2019-03-05T05:19:57.849Z,99578.94
2019-03-05T05:22:24.586Z,99588.17
2019-03-05T05:24:51.294Z,99588.66
2019-03-05T05:27:18.035Z,99579.37
2019-03-05T05:29:44.749Z,99580.42
2019-03-05T05:32:11.489Z,99586.50
2019-03-05T05:34:38.204Z,99576.50
2019-03-05T05:37:05.054Z,99584.25
2019-03-05T05:39:43.501Z,99579.84
2019-03-05T05:42:10.174Z,99592.00
2019-03-05T05:44:36.920Z,99590.44
2019-03-05T05:47:03.649Z,99593.91
2019-03-05T05:49:30.374Z,99595.61
2019-03-05T05:51:57.126Z,99586.62
2019-03-05T05:54:23.850Z,99583.91
2019-03-05T05:56:50.582Z,99586.77
2019-03-05T05:59:17.303Z,99589.63
2019-03-05T06:01:44.150Z,99589.77
2019-03-05T06:04:10.874Z,99587.85
2019-03-05T06:06:37.606Z,99590.83
2019-03-05T06:09:05.302Z,99591.59
2019-03-05T06:11:32.037Z,99587.72
2019-03-05T06:13:58.753Z,99596.83
2019-03-05T06:16:25.471Z,99601.12
2019-03-05T06:18:52.229Z,99613.23
2019-03-05T06:21:18.946Z,99600.37
2019-03-05T06:23:45.682Z,99594.67
2019-03-05T06:26:12.454Z,99602.41
2019-03-05T06:28:39.217Z,99607.78
2019-03-05T06:31:05.941Z,99605.95
2019-03-05T06:33:32.678Z,99615.81
2019-03-05T06:35:59.397Z,99609.95
2019-03-05T06:38:26.130Z,99616.27
2019-03-05T06:40:52.857Z,99609.00
2019-03-05T06:43:19.589Z,99608.86
2019-03-05T06:45:46.318Z,99609.05
2019-03-05T06:48:13.085Z,99608.05
2019-03-05T06:50:39.805Z,99616.70
2019-03-05T06:53:06.606Z,99607.03
2019-03-05T06:55:33.446Z,99617.86
2019-03-05T06:58:00.187Z,99616.33
2019-03-05T07:00:33.630Z,99618.44
2019-03-05T07:03:00.421Z,99623.89
2019-03-05T07:05:38.863Z,99630.08
2019-03-05T07:08:05.609Z,99638.39
2019-03-05T07:10:58.986Z,99636.08
2019-03-05T07:13:25.719Z,99630.50
2019-03-05T07:15:58.631Z,99631.59
2019-03-05T07:18:49.866Z,99629.06
2019-03-05T07:21:46.390Z,99628.98
2019-03-05T07:24:29.905Z,99640.48
2019-03-05T07:26:56.619Z,99648.80
2019-03-05T07:29:23.354Z,99653.64
2019-03-05T07:31:50.109Z,99653.49
2019-03-05T07:34:20.366Z,99647.50
2019-03-05T07:36:47.087Z,99673.30
2019-03-05T07:39:18.778Z,99663.42
2019-03-05T07:41:48.126Z,99649.47
2019-03-05T07:44:12.230Z,99650.78
2019-03-05T07:46:38.950Z,99650.08
2019-03-05T07:49:05.739Z,99651.80
2019-03-05T07:51:32.538Z,99656.41
2019-03-05T07:53:59.267Z,99656.08
2019-03-05T07:56:26.073Z,99659.68
2019-03-05T07:58:52.805Z,99648.63
2019-03-05T08:01:22.552Z,99647.03
2019-03-05T08:03:46.267Z,99636.86
2019-03-05T08:06:12.978Z,99641.84
2019-03-05T08:08:51.294Z,99649.47
2019-03-05T08:11:18.021Z,99636.08
2019-03-05T08:14:02.226Z,99642.75
2019-03-05T08:16:30.862Z,99643.95
2019-03-05T08:18:57.670Z,99641.75
2019-03-05T08:21:24.487Z,99650.22
2019-03-05T08:23:51.219Z,99643.05
2019-03-05T08:26:17.947Z,99649.47
2019-03-05T08:28:44.670Z,99636.23
2019-03-05T08:31:11.402Z,99638.70
2019-03-05T08:33:38.127Z,99645.13
2019-03-05T08:36:04.850Z,99644.39
2019-03-05T08:38:31.585Z,99649.54
2019-03-05T08:40:58.315Z,99643.05
2019-03-05T08:43:25.074Z,99647.64
2019-03-05T08:45:51.791Z,99650.05
2019-03-05T08:48:18.526Z,99642.44
2019-03-05T08:50:45.237Z,99639.50
2019-03-05T08:53:11.975Z,99651.24
2019-03-05T08:55:38.691Z,99637.88
2019-03-05T08:58:05.526Z,99640.06
2019-03-05T09:00:32.284Z,99641.70
2019-03-05T09:02:58.986Z,99630.26
2019-03-05T09:05:25.703Z,99633.27
2019-03-05T09:07:52.435Z,99623.78
2019-03-05T09:10:19.380Z,99635.10
2019-03-05T09:12:46.102Z,99616.83
2019-03-05T09:15:14.395Z,99619.64
2019-03-05T09:17:41.138Z,99621.19
2019-03-05T09:20:09.119Z,99629.52
2019-03-05T09:22:35.831Z,99640.16
2019-03-05T09:25:02.638Z,99653.05
2019-03-05T09:27:29.349Z,99667.77
2019-03-05T09:29:56.105Z,99675.33
2019-03-05T09:32:22.821Z,99673.14
2019-03-05T09:34:49.554Z,99690.91
2019-03-05T09:37:16.272Z,99679.89
2019-03-05T09:39:43.058Z,99684.64
2019-03-05T09:42:09.787Z,99703.61
2019-03-05T09:44:36.526Z,99681.78
2019-03-05T09:47:03.277Z,99692.59
2019-03-05T09:49:30.114Z,99680.69
2019-03-05T09:51:56.834Z,99678.95
2019-03-05T09:54:23.643Z,99678.03
2019-03-05T09:56:50.370Z,99678.39
2019-03-05T09:59:18.451Z,99672.13
2019-03-05T10:01:45.169Z,99679.06
2019-03-05T10:04:11.906Z,99667.30
2019-03-05T10:06:38.625Z,99679.20
2019-03-05T10:09:06.386Z,99663.27
2019-03-05T10:11:33.097Z,99673.56
2019-03-05T10:13:59.830Z,99668.03
2019-03-05T10:16:26.602Z,99656.33
2019-03-05T10:18:53.386Z,99651.20
2019-03-05T10:21:20.118Z,99662.94
2019-03-05T10:23:46.858Z,99664.20
2019-03-05T10:26:13.570Z,99660.06
2019-03-05T10:28:40.306Z,99666.35
2019-03-05T10:31:07.049Z,99658.68
2019-03-05T10:33:33.765Z,99657.33
2019-03-05T10:36:00.510Z,99664.19
2019-03-05T10:38:27.221Z,99668.83
2019-03-05T10:40:54.069Z,99661.70
2019-03-05T10:43:20.781Z,99650.29
2019-03-05T10:45:47.549Z,99655.38
2019-03-05T10:48:15.230Z,99649.44
2019-03-05T10:50:41.962Z,99662.52
2019-03-05T10:53:08.681Z,99655.66
2019-03-05T10:55:35.428Z,99653.55
2019-03-05T10:58:02.154Z,99649.96
2019-03-05T11:00:30.662Z,99645.74
2019-03-05T11:02:57.382Z,99656.33
2019-03-05T11:05:24.142Z,99654.03
2019-03-05T11:07:50.875Z,99658.16
2019-03-05T11:10:17.627Z,99655.76
2019-03-05T11:12:44.350Z,99653.21
2019-03-05T11:15:15.665Z,99654.93
2019-03-05T11:17:42.398Z,99649.05
2019-03-05T11:20:09.126Z,99651.86
2019-03-05T11:22:35.871Z,99652.93
2019-03-05T11:25:02.689Z,99649.95
2019-03-05T11:27:29.401Z,99646.70
2019-03-05T11:29:56.131Z,99642.39
2019-03-05T11:32:22.889Z,99627.43
2019-03-05T11:34:49.646Z,99641.46
2019-03-05T11:37:16.354Z,99629.23
2019-03-05T11:39:43.090Z,99627.77
2019-03-05T11:42:09.818Z,99642.48
2019-03-05T11:44:36.550Z,99638.42
2019-03-05T11:47:03.267Z,99639.28
2019-03-05T11:49:29.986Z,99641.44
2019-03-05T11:51:56.722Z,99639.84
2019-03-05T11:54:23.445Z,99638.66
2019-03-05T11:56:50.190Z,99646.25
2019-03-05T11:59:16.929Z,99642.09
2019-03-05T12:01:46.440Z,99641.03
2019-03-05T12:04:13.152Z,99654.64
2019-03-05T12:06:40.746Z,99648.22
2019-03-05T12:09:07.482Z,99648.84
2019-03-05T12:11:34.214Z,99655.97
2019-03-05T12:14:00.934Z,99649.45
2019-03-05T12:16:27.714Z,99655.82
2019-03-05T12:18:54.455Z,99653.56
2019-03-05T12:21:21.234Z,99658.75
2019-03-05T12:23:48.374Z,99665.52
2019-03-05T12:26:14.998Z,99668.39
2019-03-05T12:28:42.444Z,99665.91
2019-03-05T12:31:08.466Z,99662.09
2019-03-05T12:33:35.187Z,99667.40
2019-03-05T12:36:01.936Z,99666.34
2019-03-05T12:38:28.661Z,99666.34
2019-03-05T12:40:55.464Z,99664.67
2019-03-05T12:43:22.205Z,99657.73
2019-03-05T12:45:48.946Z,99667.77
2019-03-05T12:48:15.690Z,99668.31
2019-03-05T12:50:42.421Z,99658.53
2019-03-05T12:53:09.145Z,99678.06
2019-03-05T12:55:35.882Z,99662.55
2019-03-05T12:58:02.612Z,99670.45
2019-03-05T13:00:29.577Z,99674.10
2019-03-05T13:02:56.310Z,99681.86
2019-03-05T13:05:23.059Z,99689.34
2019-03-05T13:07:52.528Z,99690.58
2019-03-05T13:10:18.458Z,99689.14
2019-03-05T13:12:45.193Z,99694.88
2019-03-05T13:15:14.482Z,99691.61
2019-03-05T13:17:41.195Z,99688.31
2019-03-05T13:20:10.618Z,99703.72
2019-03-05T13:22:37.350Z,99704.45
2019-03-05T13:25:04.330Z,99714.66
2019-03-05T13:27:31.054Z,99723.23
2019-03-05T13:29:57.815Z,99725.89
2019-03-05T13:32:24.695Z,99746.58
2019-03-05T13:34:51.466Z,99750.09
2019-03-05T13:37:18.214Z,99756.55
2019-03-05T13:39:44.989Z,99758.59
2019-03-05T13:42:11.943Z,99754.11
2019-03-05T13:44:38.702Z,99749.37
2019-03-05T13:47:07.115Z,99756.31
2019-03-05T13:49:46.682Z,99757.33
2019-03-05T13:52:35.942Z,99749.09
2019-03-05T13:55:15.698Z,99761.14
2019-03-05T13:57:56.983Z,99767.20
2019-03-05T14:00:23.739Z,99767.73
2019-03-05T14:02:57.056Z,99768.98
2019-03-05T14:05:36.820Z,99772.59
2019-03-05T14:08:18.957Z,99768.22
2019-03-05T14:10:45.722Z,99774.09
2019-03-05T14:13:12.471Z,99766.72
2019-03-05T14:15:39.240Z,99769.30
2019-03-05T14:18:05.989Z,99783.70
2019-03-05T14:20:35.165Z,99771.93
2019-03-05T14:22:59.633Z,99783.45
2019-03-05T14:25:26.358Z,99780.87
2019-03-05T14:27:53.739Z,99785.70
2019-03-05T14:30:21.111Z,99786.66
2019-03-05T14:32:47.238Z,99785.42
2019-03-05T14:35:16.270Z,99778.84
2019-03-05T14:37:42.997Z,99764.63
2019-03-05T14:40:23.704Z,99769.33
2019-03-05T14:42:39.445Z,99774.61
2019-03-05T14:45:08.314Z,99769.91
2019-03-05T14:47:35.101Z,99755.84
2019-03-05T14:50:01.811Z,99753.74
2019-03-05T14:52:28.546Z,99761.36
2019-03-05T14:54:55.634Z,99766.27
2019-03-05T14:57:24.272Z,99762.13
2019-03-05T14:59:52.141Z,99766.87
2019-03-05T15:02:18.856Z,99758.64
2019-03-05T15:04:45.602Z,99756.81
2019-03-05T15:07:12.388Z,99742.83
2019-03-05T15:09:39.096Z,99728.11
2019-03-05T15:12:05.848Z,99735.54
2019-03-05T15:14:32.804Z,99741.43
2019-03-05T15:16:59.550Z,99742.69
2019-03-05T15:19:26.369Z,99755.34
2019-03-05T15:21:53.150Z,99761.56
2019-03-05T15:24:19.932Z,99758.78
2019-03-05T15:26:46.681Z,99755.34
2019-03-05T15:29:13.422Z,99759.39
2019-03-05T15:31:40.146Z,99758.10
2019-03-05T15:34:06.944Z,99764.44
2019-03-05T15:36:33.824Z,99757.87
2019-03-05T15:39:00.678Z,99759.17
2019-03-05T15:41:27.891Z,99780.95
2019-03-05T15:43:54.215Z,99787.86
2019-03-05T15:46:20.983Z,99789.89
2019-03-05T15:48:47.862Z,99790.15
2019-03-05T15:51:14.651Z,99799.67
2019-03-05T15:53:41.393Z,99787.91
2019-03-05T15:56:08.111Z,99802.47
2019-03-05T15:58:35.608Z,99787.97
2019-03-05T16:01:02.365Z,99774.92
2019-03-05T16:03:29.167Z,99795.00
2019-03-05T16:05:57.791Z,99799.48
2019-03-05T16:08:25.212Z,99800.50
2019-03-05T16:10:50.486Z,99809.55
2019-03-05T16:13:19.329Z,99813.93
2019-03-05T16:15:45.532Z,99820.20
2019-03-05T16:18:10.407Z,99815.30
2019-03-05T16:20:37.153Z,99810.39
2019-03-05T16:23:03.903Z,99803.58
2019-03-05T16:25:30.718Z,99810.92
2019-03-05T16:27:57.493Z,99814.61
2019-03-05T16:30:34.314Z,99810.09
2019-03-05T16:33:04.247Z,99815.02
2019-03-05T16:35:43.914Z,99818.89
2019-03-05T16:38:31.468Z,99831.42
2019-03-05T16:41:06.154Z,99823.36
2019-03-05T16:43:51.569Z,99834.80
2019-03-05T16:46:27.874Z,99839.80
2019-03-05T16:49:14.250Z,99839.83
2019-03-05T16:51:50.676Z,99848.69
2019-03-05T16:54:23.194Z,99851.13
2019-03-05T16:56:57.419Z,99859.53
2019-03-05T16:59:29.893Z,99871.88
2019-03-05T17:02:16.283Z,99871.04
2019-03-05T17:05:02.650Z,99867.87
2019-03-05T17:07:39.769Z,99860.03
2019-03-05T17:10:13.028Z,99853.72
2019-03-05T17:12:39.891Z,99852.48
2019-03-05T17:15:07.326Z,99862.37
2019-03-05T17:17:34.071Z,99868.62
2019-03-05T17:20:00.803Z,99864.20
2019-03-05T17:22:27.678Z,99869.72
2019-03-05T17:24:54.406Z,99873.41
2019-03-05T17:27:21.150Z,99880.64
2019-03-05T17:29:47.923Z,99880.84
2019-03-05T17:32:14.678Z,99887.30
2019-03-05T17:34:41.810Z,99900.33
2019-03-05T17:37:08.562Z,99900.52
2019-03-05T17:39:35.344Z,99911.21
2019-03-05T17:42:02.090Z,99909.53
2019-03-05T17:44:28.857Z,99917.84
2019-03-05T17:46:55.623Z,99922.13
2019-03-05T17:49:22.378Z,99913.08
2019-03-05T17:51:49.127Z,99918.69
2019-03-05T17:54:15.892Z,99921.52
2019-03-05T17:56:42.641Z,99923.84
2019-03-05T17:59:09.424Z,99925.98
2019-03-05T18:01:36.149Z,99929.31
2019-03-05T18:04:02.930Z,99925.51
2019-03-05T18:06:29.694Z,99927.90
2019-03-05T18:08:56.454Z,99931.77
2019-03-05T18:11:23.199Z,99935.54
2019-03-05T18:13:49.954Z,99940.59
2019-03-05T18:16:16.718Z,99954.58
2019-03-05T18:18:43.490Z,99956.41
2019-03-05T18:21:10.339Z,99955.80
2019-03-05T18:23:37.102Z,99956.95
2019-03-05T18:26:03.946Z,99961.97
2019-03-05T18:28:30.745Z,99965.72
2019-03-05T18:30:57.495Z,99966.36
2019-03-05T18:33:24.311Z,99972.22
2019-03-05T18:35:51.040Z,99977.15
2019-03-05T18:38:17.829Z,99975.53
2019-03-05T18:40:44.566Z,99979.23
2019-03-05T18:43:11.286Z,99986.14
2019-03-05T18:45:38.090Z,99987.16
2019-03-05T18:48:04.906Z,99992.18
2019-03-05T18:50:31.704Z,99996.27
2019-03-05T18:52:58.505Z,99992.94
2019-03-05T18:55:25.300Z,99992.41
2019-03-05T18:57:52.045Z,100001.11
2019-03-05T19:00:20.385Z,99996.55
2019-03-05T19:02:47.152Z,99996.88
2019-03-05T19:05:14.118Z,100004.62
2019-03-05T19:07:40.929Z,99993.05
2019-03-05T19:10:10.415Z,99990.50
2019-03-05T19:12:37.153Z,99992.02
2019-03-05T19:15:04.841Z,99995.23
2019-03-05T19:17:31.585Z,99994.77
2019-03-05T19:19:58.360Z,99999.12
2019-03-05T19:22:25.118Z,99998.06
2019-03-05T19:24:52.018Z,100002.42
2019-03-05T19:27:25.840Z,99997.41
2019-03-05T19:29:45.538Z,100001.55
2019-03-05T19:32:12.293Z,100001.00
2019-03-05T19:34:39.063Z,100005.85
2019-03-05T19:37:05.870Z,100010.13
2019-03-05T19:39:32.642Z,100008.97
2019-03-05T19:41:59.394Z,100006.25
2019-03-05T19:44:26.176Z,100008.44
2019-03-05T19:46:52.970Z,100008.55
2019-03-05T19:49:19.742Z,100004.91
2019-03-05T19:51:46.519Z,100006.20
2019-03-05T19:54:13.270Z,100016.47
2019-03-05T19:56:40.020Z,100016.98
2019-03-05T19:59:06.757Z,100019.66
2019-03-05T20:01:36.591Z,100030.16
2019-03-05T20:04:11.471Z,100025.17
2019-03-05T20:06:30.115Z,100015.62
2019-03-05T20:08:56.871Z,100017.47
2019-03-05T20:11:23.653Z,100022.45
2019-03-05T20:13:50.389Z,100018.20
2019-03-05T20:16:18.394Z,100016.44
2019-03-05T20:18:45.144Z,100017.67
2019-03-05T20:21:11.942Z,100017.75
2019-03-05T20:23:38.659Z,100018.97
2019-03-05T20:26:05.439Z,100021.98
2019-03-05T20:28:32.179Z,100027.20
2019-03-05T20:30:58.982Z,100026.41
2019-03-05T20:33:25.769Z,100021.10
2019-03-05T20:35:52.534Z,100022.24
2019-03-05T20:38:19.289Z,100022.73
2019-03-05T20:40:46.055Z,100025.59
2019-03-05T20:43:14.046Z,100021.73
2019-03-05T20:45:40.903Z,100022.64
2019-03-05T20:48:07.663Z,100021.61
2019-03-05T20:50:35.391Z,100019.00
2019-03-05T20:53:02.129Z,100022.85
2019-03-05T20:55:29.143Z,100024.14
2019-03-05T20:57:55.901Z,100028.31
2019-03-05T21:00:25.808Z,100030.14
2019-03-05T21:02:53.574Z,100023.35
2019-03-05T21:05:20.396Z,100029.59
2019-03-05T21:07:47.136Z,100024.98
2019-03-05T21:10:13.982Z,100026.89
2019-03-05T21:12:40.722Z,100015.45
2019-03-05T21:15:08.198Z,100018.36
2019-03-05T21:17:34.942Z,100017.34
2019-03-05T21:20:01.676Z,100023.27
2019-03-05T21:22:28.414Z,100015.44
2019-03-05T21:24:55.129Z,100011.55
2019-03-05T21:27:21.886Z,100004.31
2019-03-05T21:29:48.624Z,100014.38
2019-03-05T21:32:15.374Z,100015.89
2019-03-05T21:34:42.105Z,100014.42
2019-03-05T21:37:08.855Z,100011.81
2019-03-05T21:39:35.577Z,100010.28
2019-03-05T21:42:02.327Z,100013.06
2019-03-05T21:44:29.267Z,100007.09
2019-03-05T21:46:56.013Z,100005.43
2019-03-05T21:49:22.729Z,100006.91
2019-03-05T21:51:49.466Z,100003.72
2019-03-05T21:54:16.218Z,100003.53
2019-03-05T21:56:43.018Z,100001.23
2019-03-05T21:59:09.751Z,100008.83
2019-03-05T22:01:36.497Z,100002.97
2019-03-05T22:04:03.263Z,100001.22
2019-03-05T22:06:30.054Z,100002.50
2019-03-05T22:08:56.774Z,99997.86
2019-03-05T22:11:23.518Z,99998.00
2019-03-05T22:13:50.243Z,100002.45
2019-03-05T22:16:16.990Z,99995.05
2019-03-05T22:18:43.725Z,99999.57
2019-03-05T22:21:10.474Z,100002.50
2019-03-05T22:23:37.194Z,100001.84
2019-03-05T22:26:03.942Z,100004.69
2019-03-05T22:28:30.670Z,99996.77
2019-03-05T22:30:57.393Z,99996.88
2019-03-05T22:33:24.129Z,99997.41
2019-03-05T22:35:50.857Z,99990.02
2019-03-05T22:38:17.602Z,99993.45
2019-03-05T22:40:44.338Z,99993.84
2019-03-05T22:43:11.067Z,99993.67
2019-03-05T22:45:37.797Z,99996.95
2019-03-05T22:48:05.465Z,99991.94
2019-03-05T22:50:32.190Z,99999.95
2019-03-05T22:52:58.942Z,99999.41
2019-03-05T22:55:25.662Z,99989.55
2019-03-05T22:57:52.393Z,99996.48
2019-03-05T23:00:34.721Z,99992.89
2019-03-05T23:03:01.471Z,99986.14
2019-03-05T23:05:28.249Z,99988.77
2019-03-05T23:07:54.994Z,99981.31
2019-03-05T23:10:21.720Z,99979.03
2019-03-05T23:12:48.454Z,99978.01
2019-03-05T23:15:15.221Z,99978.95
2019-03-05T23:17:41.966Z,99977.90
2019-03-05T23:20:08.807Z,99972.01
2019-03-05T23:22:35.546Z,99974.38
2019-03-05T23:25:02.287Z,99978.87
2019-03-05T23:27:29.017Z,99966.98
2019-03-05T23:29:55.749Z,99976.27
2019-03-05T23:32:22.486Z,99967.32
2019-03-05T23:34:49.282Z,99961.28
2019-03-05T23:37:16.009Z,99965.45
2019-03-05T23:39:42.742Z,99958.38
2019-03-05T23:42:09.701Z,99954.61
2019-03-05T23:44:36.429Z,99950.27
2019-03-05T23:47:03.175Z,99947.55
2019-03-05T23:49:29.894Z,99941.56
2019-03-05T23:51:56.630Z,99946.45
2019-03-05T23:54:23.366Z,99946.14
2019-03-05T23:56:50.122Z,99941.67
2019-03-05T23:59:16.854Z,99941.80
